createdAt,value
2023-08-16T08:33:56.718Z,6.60
2023-08-16T08:37:00.628Z,6.90
2023-08-16T08:40:04.233Z,6.53
2023-08-16T08:43:07.490Z,6.50
2023-08-16T08:46:10.150Z,6.07
2023-08-16T08:49:14.951Z,6.20
2023-08-16T08:52:18.922Z,6.10
2023-08-16T08:55:21.685Z,6.60
2023-08-16T08:58:26.286Z,7.00
2023-08-16T09:01:29.224Z,6.85
2023-08-16T09:04:34.346Z,11.85
2023-08-16T09:07:41.295Z,6.60
2023-08-16T09:10:44.495Z,6.90
2023-08-16T09:13:48.604Z,6.80
2023-08-16T09:16:51.079Z,7.35
2023-08-16T09:19:53.704Z,7.63
2023-08-16T09:22:56.794Z,7.10
2023-08-16T09:26:00.933Z,6.90
2023-08-16T09:29:04.245Z,7.03
2023-08-16T09:32:09.483Z,7.20
2023-08-16T09:35:14.847Z,6.80
2023-08-16T09:38:37.979Z,6.45
2023-08-16T09:41:52.336Z,6.87
2023-08-16T09:44:55.233Z,7.50
2023-08-16T09:48:00.678Z,6.88
2023-08-16T09:54:14.691Z,7.35
2023-08-16T10:00:24.869Z,7.60
2023-08-16T10:03:27.841Z,7.53
2023-08-16T10:09:43.101Z,6.70
2023-08-16T10:12:48.761Z,7.33
2023-08-16T10:15:56.830Z,7.60
2023-08-16T10:19:02.022Z,7.93
2023-08-16T10:22:22.930Z,6.85
2023-08-16T10:25:39.907Z,7.60
2023-08-16T10:28:46.422Z,7.30
2023-08-16T10:31:51.089Z,7.15
2023-08-16T10:34:56.394Z,7.32
2023-08-16T10:37:58.936Z,7.60
2023-08-16T10:41:13.610Z,7.18
2023-08-16T10:44:24.626Z,7.60
2023-08-16T10:47:28.619Z,7.38
2023-08-16T10:50:35.576Z,8.07
2023-08-16T10:53:38.881Z,8.05
2023-08-16T10:56:45.771Z,8.38
2023-08-16T10:59:49.419Z,8.33
2023-08-16T11:02:55.907Z,8.52
2023-08-16T11:06:01.518Z,8.85
2023-08-16T11:09:04.336Z,8.15
2023-08-16T11:12:09.865Z,8.18
2023-08-16T11:15:12.361Z,8.07
2023-08-16T11:18:16.717Z,7.82
2023-08-16T11:21:20.857Z,7.57
2023-08-16T11:24:25.074Z,7.15
2023-08-16T11:27:27.820Z,7.20
2023-08-16T11:30:33.694Z,7.23
2023-08-16T11:33:44.047Z,7.20
2023-08-16T11:36:46.478Z,7.45
2023-08-16T11:40:00.096Z,6.72
2023-08-16T11:43:05.987Z,7.28
2023-08-16T11:46:08.669Z,6.83
2023-08-16T11:49:14.143Z,7.47
2023-08-16T11:52:26.886Z,7.05
2023-08-16T11:55:31.346Z,7.28
2023-08-16T11:58:45.209Z,7.22
2023-08-16T12:01:48.814Z,7.17
2023-08-16T12:04:52.459Z,7.13
2023-08-16T12:07:54.984Z,6.93
2023-08-16T12:10:57.533Z,7.20
2023-08-16T12:14:02.722Z,7.00
2023-08-16T12:17:06.576Z,7.03
2023-08-16T12:20:10.247Z,7.57
2023-08-16T12:23:13.173Z,7.80
2023-08-16T12:26:15.898Z,8.68
2023-08-16T12:29:18.615Z,7.90
2023-08-16T12:32:21.141Z,7.90
2023-08-16T12:35:24.078Z,7.97
2023-08-16T12:38:27.168Z,7.13
2023-08-16T12:41:29.636Z,6.82
2023-08-16T12:44:32.361Z,7.22
2023-08-16T12:47:34.892Z,6.63
2023-08-16T12:50:37.935Z,6.60
2023-08-16T12:53:40.362Z,6.63
2023-08-16T12:56:46.441Z,6.80
2023-08-16T12:59:51.922Z,6.75
2023-08-16T13:02:57.910Z,6.73
2023-08-16T13:06:07.680Z,6.20
2023-08-16T13:09:25.428Z,6.75
2023-08-16T13:12:33.404Z,7.18
2023-08-16T13:15:40.786Z,6.90
2023-08-16T13:18:45.791Z,6.37
2023-08-16T13:28:02.493Z,6.20
2023-08-16T13:31:06.810Z,6.30
2023-08-16T13:46:41.370Z,5.82
2023-08-16T13:49:46.552Z,6.07
2023-08-16T13:52:49.040Z,6.13
2023-08-16T13:55:51.538Z,6.00
2023-08-16T13:58:54.062Z,5.95
2023-08-16T14:01:56.616Z,5.72
2023-08-16T14:04:59.052Z,6.13
2023-08-16T14:08:01.633Z,6.60
2023-08-16T14:11:04.372Z,5.72
2023-08-16T14:14:06.995Z,5.68
2023-08-16T14:17:09.645Z,5.35
2023-08-16T14:20:12.412Z,5.70
2023-08-16T14:23:16.211Z,6.15
2023-08-16T14:26:22.077Z,5.95
2023-08-16T14:29:24.991Z,6.05
2023-08-16T14:32:27.883Z,5.97
2023-08-16T14:35:30.536Z,5.77
2023-08-16T14:38:35.375Z,5.90
2023-08-16T14:41:40.074Z,6.07
2023-08-16T14:44:42.462Z,6.05
2023-08-16T14:47:44.940Z,6.13
2023-08-16T14:50:47.463Z,5.60
2023-08-16T14:53:50.113Z,5.85
2023-08-16T14:56:52.630Z,5.80
2023-08-16T14:59:55.356Z,5.50
2023-08-16T15:03:00.802Z,5.68
2023-08-16T15:06:03.930Z,5.90
2023-08-16T15:09:07.542Z,5.80
2023-08-16T15:12:10.027Z,5.40
2023-08-16T15:15:13.847Z,6.00
2023-08-16T15:18:16.350Z,6.18
2023-08-16T15:21:18.788Z,5.50
2023-08-16T15:24:21.293Z,5.45
2023-08-16T15:27:23.801Z,5.72
2023-08-16T15:30:26.327Z,5.68
2023-08-16T15:33:29.134Z,5.68
2023-08-16T15:36:31.580Z,5.80
2023-08-16T15:39:34.068Z,5.60
2023-08-16T15:42:36.710Z,5.53
2023-08-16T15:45:39.759Z,5.50
2023-08-16T15:48:42.320Z,5.68
2023-08-16T15:51:44.854Z,5.50
2023-08-16T15:54:47.374Z,6.20
2023-08-16T15:57:49.827Z,5.55
2023-08-16T16:00:56.513Z,5.80
2023-08-16T16:03:59.774Z,5.57
2023-08-16T16:07:02.404Z,5.77
2023-08-16T16:10:05.249Z,6.10
2023-08-16T16:13:08.112Z,5.80
2023-08-16T16:16:10.772Z,5.50
2023-08-16T16:19:13.763Z,5.90
2023-08-16T16:22:16.492Z,5.30
2023-08-16T16:25:18.965Z,5.88
2023-08-16T16:28:21.489Z,5.68
2023-08-16T16:31:24.005Z,5.85
2023-08-16T16:34:26.474Z,5.63
2023-08-16T16:37:28.974Z,5.70
2023-08-16T16:40:31.570Z,5.70
2023-08-16T16:43:34.515Z,5.47
2023-08-16T16:46:37.013Z,6.30
2023-08-16T16:49:39.508Z,6.25
2023-08-16T16:52:41.939Z,6.00
2023-08-16T16:55:46.053Z,5.78
2023-08-16T16:58:48.911Z,5.88
2023-08-16T17:01:51.550Z,6.22
2023-08-16T17:04:54.034Z,6.32
2023-08-16T17:07:57.337Z,5.93
2023-08-16T17:10:59.846Z,6.63
2023-08-16T17:14:02.339Z,6.53
2023-08-16T17:17:06.782Z,6.35
2023-08-16T17:20:10.973Z,6.72
2023-08-16T17:23:13.521Z,6.10
2023-08-16T17:26:16.099Z,6.40
2023-08-16T17:29:18.571Z,6.40
2023-08-16T17:32:21.067Z,6.30
2023-08-16T17:35:23.498Z,6.47
2023-08-16T17:38:26.037Z,6.60
2023-08-16T17:41:28.820Z,6.32
2023-08-16T17:44:31.234Z,6.43
2023-08-16T17:47:35.809Z,6.30
2023-08-16T17:50:41.260Z,6.18
2023-08-16T17:57:18.730Z,4.90
2023-08-16T18:00:21.193Z,7.63
2023-08-16T18:03:24.797Z,10.70
2023-08-16T18:06:27.409Z,11.93
2023-08-16T18:09:31.813Z,20.90
2023-08-16T18:12:34.406Z,13.02
2023-08-16T18:15:36.826Z,17.25
2023-08-16T18:18:39.310Z,12.40
2023-08-16T18:21:41.765Z,13.57
2023-08-16T18:24:44.283Z,11.95
2023-08-16T18:27:46.832Z,11.02
2023-08-16T18:30:50.295Z,11.65
2023-08-16T18:33:52.805Z,10.80
2023-08-16T18:36:55.327Z,10.83
2023-08-16T18:39:57.955Z,8.68
2023-08-16T18:43:00.509Z,7.75
2023-08-16T18:46:03.068Z,9.90
2023-08-16T18:49:05.595Z,6.85
2023-08-16T18:52:08.062Z,7.67
2023-08-16T18:55:10.545Z,9.98
2023-08-16T18:58:13.038Z,8.02
2023-08-16T19:01:17.724Z,10.13
2023-08-16T19:04:21.388Z,12.55
2023-08-16T19:07:24.075Z,8.00
2023-08-16T19:10:26.729Z,8.02
2023-08-16T19:13:29.170Z,11.45
2023-08-16T19:16:33.930Z,12.13
2023-08-16T19:19:36.648Z,11.70
2023-08-16T19:22:39.329Z,9.03
2023-08-16T19:25:41.877Z,10.75
2023-08-16T19:28:44.422Z,10.82
2023-08-16T19:31:46.965Z,12.38
2023-08-16T19:34:49.606Z,14.07
2023-08-16T19:37:52.200Z,15.60
2023-08-16T19:40:54.703Z,13.65
2023-08-16T19:44:06.949Z,15.56
2023-08-16T19:47:09.684Z,13.25
2023-08-16T19:50:23.588Z,11.23
2023-08-16T19:53:26.684Z,13.32
2023-08-16T19:56:29.313Z,13.48
2023-08-16T19:59:31.739Z,13.13
2023-08-16T20:02:34.663Z,13.75
2023-08-16T20:05:39.538Z,15.27
2023-08-16T20:08:41.906Z,16.45
2023-08-16T20:11:44.577Z,13.20
2023-08-16T20:14:47.015Z,13.32
2023-08-16T20:17:49.451Z,15.15
2023-08-16T20:20:52.045Z,16.47
2023-08-16T20:23:54.543Z,16.33
2023-08-16T20:26:57.072Z,15.35
2023-08-16T20:30:00.151Z,16.42
2023-08-16T20:33:02.702Z,16.58
2023-08-16T20:36:05.922Z,17.23
2023-08-16T20:39:09.181Z,17.70
2023-08-16T20:42:11.806Z,17.58
2023-08-16T20:45:14.359Z,16.52
2023-08-16T20:48:16.869Z,17.75
2023-08-16T20:51:19.396Z,17.30
2023-08-16T20:54:21.908Z,16.63
2023-08-16T20:57:25.231Z,14.73
2023-08-16T21:00:27.923Z,17.38
2023-08-16T21:03:30.335Z,15.57
2023-08-16T21:06:32.753Z,14.33
2023-08-16T21:09:36.360Z,16.23
2023-08-16T21:12:38.829Z,16.27
2023-08-16T21:15:41.372Z,16.52
2023-08-16T21:18:43.857Z,16.45
2023-08-16T21:21:46.358Z,16.30
2023-08-16T21:24:48.939Z,16.25
2023-08-16T21:27:51.819Z,16.27
2023-08-16T21:30:54.340Z,15.55
2023-08-16T21:33:56.863Z,15.50
2023-08-16T21:37:00.380Z,16.13
2023-08-16T21:40:03.057Z,16.15
2023-08-16T21:43:05.681Z,16.17
2023-08-16T21:46:08.179Z,17.20
2023-08-16T21:49:11.660Z,17.02
2023-08-16T21:52:14.137Z,16.30
2023-08-16T21:55:16.700Z,14.80
2023-08-16T21:58:19.654Z,15.45
2023-08-16T22:01:22.141Z,15.95
2023-08-16T22:04:24.822Z,16.55
2023-08-16T22:07:27.423Z,17.17
2023-08-16T22:10:30.547Z,18.55
2023-08-16T22:13:33.296Z,16.58
2023-08-16T22:16:35.816Z,16.02
2023-08-16T22:19:38.335Z,15.73
2023-08-16T22:22:45.030Z,15.60
2023-08-16T22:25:47.491Z,15.50
2023-08-16T22:28:56.876Z,15.25
2023-08-16T22:31:59.531Z,14.48
2023-08-16T22:35:02.143Z,15.13
2023-08-16T22:38:04.729Z,15.83
2023-08-16T22:41:09.722Z,15.95
2023-08-16T22:44:12.268Z,14.82
2023-08-16T22:47:15.237Z,16.17
2023-08-16T22:50:19.710Z,15.45
2023-08-16T22:53:22.268Z,15.93
2023-08-16T22:56:24.721Z,15.77
2023-08-16T22:59:27.177Z,16.15
2023-08-16T23:02:29.684Z,16.05
2023-08-16T23:05:32.545Z,14.70
2023-08-16T23:08:34.990Z,16.77
2023-08-16T23:11:37.443Z,16.05
2023-08-16T23:14:39.976Z,16.17
2023-08-16T23:17:42.541Z,14.93
2023-08-16T23:20:45.088Z,14.35
2023-08-16T23:23:47.589Z,14.00
2023-08-16T23:26:50.078Z,15.80
2023-08-16T23:29:52.556Z,14.80
2023-08-16T23:32:55.159Z,14.15
2023-08-16T23:35:57.706Z,13.52
2023-08-16T23:39:00.284Z,14.13
2023-08-16T23:42:02.870Z,14.68
2023-08-16T23:45:05.875Z,15.32
2023-08-16T23:48:08.484Z,13.85
2023-08-16T23:51:11.227Z,14.38
2023-08-16T23:54:13.697Z,14.13
2023-08-16T23:57:16.154Z,14.13
